createdAt,value
2022-07-29T00:00:34.286Z,21
2022-07-29T00:01:44.038Z,20
2022-07-29T00:02:50.145Z,21
2022-07-29T00:04:21.700Z,20
2022-07-29T00:05:44.732Z,22
2022-07-29T00:06:49.867Z,22
2022-07-29T00:07:52.832Z,21
2022-07-29T00:09:02.724Z,21
2022-07-29T00:10:07.226Z,20
2022-07-29T00:11:35.601Z,20
2022-07-29T00:12:39.380Z,20
2022-07-29T00:13:51.298Z,20
2022-07-29T00:15:31.028Z,20
2022-07-29T00:16:54.028Z,22
2022-07-29T00:17:59.328Z,22
2022-07-29T00:19:03.413Z,22
2022-07-29T00:20:05.274Z,23
2022-07-29T00:21:07.626Z,21
2022-07-29T00:22:09.347Z,22
2022-07-29T00:23:14.470Z,22
2022-07-29T00:24:22.935Z,22
2022-07-29T00:25:24.000Z,22
2022-07-29T00:26:25.378Z,21
2022-07-29T00:27:27.463Z,21
2022-07-29T00:28:31.508Z,20
2022-07-29T00:29:35.539Z,20
2022-07-29T00:30:36.597Z,21
2022-07-29T00:31:38.963Z,21
2022-07-29T00:32:40.818Z,23
2022-07-29T00:33:42.287Z,23
2022-07-29T00:34:43.280Z,22
2022-07-29T00:35:45.905Z,22
2022-07-29T00:36:51.478Z,21
2022-07-29T00:37:56.104Z,21
2022-07-29T00:38:57.643Z,22
2022-07-29T00:39:59.233Z,22
2022-07-29T00:41:01.090Z,22
2022-07-29T00:42:02.914Z,23
2022-07-29T00:43:04.184Z,23
2022-07-29T00:44:05.527Z,24
2022-07-29T00:45:09.665Z,26
2022-07-29T00:46:28.148Z,25
2022-07-29T00:47:33.607Z,26
2022-07-29T00:48:39.213Z,23
2022-07-29T00:52:52.484Z,22
2022-07-29T00:54:07.262Z,23
2022-07-29T00:55:10.252Z,22
2022-07-29T00:56:33.198Z,23
2022-07-29T00:57:35.273Z,23
2022-07-29T00:58:37.062Z,23
2022-07-29T00:59:38.528Z,23
2022-07-29T01:00:42.647Z,22
2022-07-29T01:01:47.289Z,22
2022-07-29T01:02:48.887Z,22
2022-07-29T01:03:51.443Z,21
2022-07-29T01:05:08.604Z,21
2022-07-29T01:06:13.920Z,20
2022-07-29T01:07:20.119Z,20
2022-07-29T01:08:21.628Z,21
2022-07-29T01:09:47.222Z,22
2022-07-29T01:10:53.746Z,22
2022-07-29T01:12:00.352Z,23
2022-07-29T01:13:02.127Z,22
2022-07-29T01:14:15.674Z,22
2022-07-29T01:15:21.065Z,23
2022-07-29T01:16:23.025Z,24
2022-07-29T01:17:27.670Z,24
2022-07-29T01:19:04.002Z,25
2022-07-29T01:20:06.112Z,25
2022-07-29T01:21:07.755Z,23
2022-07-29T01:22:09.559Z,23
2022-07-29T01:23:11.186Z,24
2022-07-29T01:24:16.675Z,23
2022-07-29T01:25:26.154Z,24
2022-07-29T01:26:32.844Z,24
2022-07-29T01:27:41.794Z,23
2022-07-29T01:28:48.045Z,24
2022-07-29T01:29:52.641Z,23
2022-07-29T01:30:57.844Z,23
2022-07-29T01:33:39.173Z,22
2022-07-29T01:34:48.070Z,22
2022-07-29T01:35:56.166Z,22
2022-07-29T01:38:28.936Z,23
2022-07-29T01:39:36.474Z,23
2022-07-29T01:41:06.504Z,22
2022-07-29T01:42:22.200Z,22
2022-07-29T01:43:27.926Z,21
2022-07-29T02:23:09.802Z,21
2022-07-29T02:24:11.630Z,22
2022-07-29T02:25:14.393Z,23
2022-07-29T02:26:17.791Z,23
2022-07-29T02:27:20.205Z,24
2022-07-29T02:28:22.679Z,24
2022-07-29T02:29:25.301Z,24
2022-07-29T02:30:26.904Z,24
2022-07-29T02:31:28.258Z,23
2022-07-29T02:32:30.531Z,22
2022-07-29T02:33:32.305Z,21
2022-07-29T02:34:34.569Z,22
2022-07-29T02:35:36.349Z,23
2022-07-29T02:36:38.180Z,24
2022-07-29T02:37:39.497Z,23
2022-07-29T02:38:40.806Z,22
2022-07-29T02:39:43.389Z,23
2022-07-29T02:40:44.674Z,23
2022-07-29T02:41:46.202Z,24
2022-07-29T02:42:48.325Z,24
2022-07-29T02:43:49.563Z,23
2022-07-29T02:44:51.401Z,23
2022-07-29T02:45:53.217Z,24
2022-07-29T02:46:55.718Z,24
2022-07-29T02:47:58.221Z,24
2022-07-29T02:49:00.565Z,23
2022-07-29T02:50:02.967Z,24
2022-07-29T02:51:05.032Z,23
2022-07-29T02:52:06.852Z,23
2022-07-29T02:53:08.385Z,23
2022-07-29T02:54:10.164Z,22
2022-07-29T02:55:12.010Z,23
2022-07-29T02:56:12.989Z,23
2022-07-29T02:57:13.996Z,24
2022-07-29T02:58:16.062Z,25
2022-07-29T02:59:17.109Z,25
2022-07-29T03:00:18.659Z,25
2022-07-29T03:01:22.489Z,24
2022-07-29T03:02:24.547Z,23
2022-07-29T03:03:26.620Z,24
2022-07-29T03:04:27.703Z,24
2022-07-29T03:05:28.900Z,23
2022-07-29T03:06:39.148Z,22
2022-07-29T03:07:40.408Z,21
2022-07-29T03:08:41.666Z,21
2022-07-29T03:09:42.668Z,22
2022-07-29T03:10:45.019Z,21
2022-07-29T03:11:51.164Z,22
2022-07-29T03:12:52.418Z,22
2022-07-29T03:13:53.690Z,21
2022-07-29T03:14:56.026Z,21
2022-07-29T03:15:58.031Z,21
2022-07-29T03:16:59.925Z,21
2022-07-29T03:18:01.431Z,21
2022-07-29T03:19:02.649Z,22
2022-07-29T03:20:03.627Z,23
2022-07-29T03:21:05.684Z,24
2022-07-29T03:22:07.546Z,25
2022-07-29T03:23:09.155Z,26
2022-07-29T03:24:12.838Z,24
2022-07-29T03:25:15.387Z,23
2022-07-29T03:26:17.228Z,22
2022-07-29T03:27:19.286Z,21
2022-07-29T03:28:22.592Z,22
2022-07-29T03:29:34.900Z,24
2022-07-29T03:30:39.160Z,24
2022-07-29T03:31:46.421Z,24
2022-07-29T03:32:52.585Z,24
2022-07-29T03:33:59.105Z,22
2022-07-29T03:35:00.114Z,22
2022-07-29T03:36:01.366Z,23
2022-07-29T03:37:02.888Z,23
2022-07-29T03:38:04.087Z,24
2022-07-29T03:39:06.473Z,24
2022-07-29T03:40:08.479Z,23
2022-07-29T03:41:10.171Z,22
2022-07-29T03:42:11.991Z,21
2022-07-29T03:43:14.331Z,21
2022-07-29T03:44:17.738Z,22
2022-07-29T03:45:20.082Z,23
2022-07-29T03:46:21.581Z,23
2022-07-29T03:47:50.506Z,23
2022-07-29T03:49:02.050Z,23
2022-07-29T03:50:03.752Z,23
2022-07-29T03:51:05.028Z,23
2022-07-29T03:52:08.727Z,22
2022-07-29T03:53:11.069Z,23
2022-07-29T03:54:13.918Z,22
2022-07-29T03:55:16.716Z,24
2022-07-29T03:56:18.520Z,24
2022-07-29T03:57:20.589Z,24
2022-07-29T03:58:24.196Z,24
2022-07-29T03:59:25.972Z,21
2022-07-29T04:00:27.518Z,20
2022-07-29T04:01:29.021Z,20
2022-07-29T04:02:31.227Z,20
2022-07-29T04:03:32.647Z,22
2022-07-29T04:04:35.219Z,23
2022-07-29T04:05:36.820Z,23
2022-07-29T04:06:38.104Z,23
2022-07-29T04:07:39.377Z,22
2022-07-29T04:08:40.369Z,22
2022-07-29T04:09:41.604Z,22
2022-07-29T04:10:42.608Z,21
2022-07-29T04:12:04.197Z,21
2022-07-29T04:13:05.527Z,21
2022-07-29T04:14:07.058Z,22
2022-07-29T04:15:08.337Z,23
2022-07-29T04:16:09.474Z,23
2022-07-29T04:17:11.357Z,23
2022-07-29T04:18:13.709Z,23
2022-07-29T04:19:15.548Z,23
2022-07-29T04:20:17.126Z,22
2022-07-29T04:21:18.911Z,22
2022-07-29T04:22:20.465Z,22
2022-07-29T04:23:28.168Z,23
2022-07-29T04:24:29.401Z,23
2022-07-29T04:25:30.388Z,24
2022-07-29T04:26:31.370Z,25
2022-07-29T04:27:32.379Z,25
2022-07-29T04:28:33.364Z,23
2022-07-29T04:29:34.359Z,23
2022-07-29T04:30:35.912Z,23
2022-07-29T04:31:37.957Z,23
2022-07-29T04:32:39.923Z,24
2022-07-29T04:33:41.468Z,25
2022-07-29T04:34:42.463Z,24
2022-07-29T04:35:55.075Z,24
2022-07-29T04:36:57.454Z,23
2022-07-29T04:37:59.725Z,23
2022-07-29T04:39:01.315Z,22
2022-07-29T04:40:03.521Z,23
2022-07-29T04:41:06.886Z,23
2022-07-29T04:42:11.412Z,22
2022-07-29T04:43:15.933Z,23
2022-07-29T04:44:29.469Z,23
2022-07-29T04:45:37.443Z,25
2022-07-29T04:46:38.780Z,26
2022-07-29T04:47:40.632Z,26
2022-07-29T04:48:42.278Z,27
2022-07-29T04:49:44.187Z,27
2022-07-29T04:50:45.163Z,27
2022-07-29T04:51:46.700Z,27
2022-07-29T04:52:47.708Z,25
2022-07-29T04:53:49.021Z,25
2022-07-29T04:54:50.269Z,27
2022-07-29T04:55:51.274Z,28
2022-07-29T04:56:52.824Z,32
2022-07-29T04:57:53.850Z,33
2022-07-29T04:58:55.399Z,33
2022-07-29T04:59:56.680Z,33
2022-07-29T05:00:57.985Z,30
2022-07-29T05:01:59.386Z,29
2022-07-29T05:03:01.418Z,28
2022-07-29T05:04:04.172Z,28
2022-07-29T05:05:06.992Z,27
2022-07-29T05:06:07.981Z,28
2022-07-29T05:07:09.209Z,27
2022-07-29T05:08:10.263Z,25
2022-07-29T05:09:11.535Z,25
2022-07-29T05:10:12.811Z,24
2022-07-29T05:11:21.915Z,24
2022-07-29T05:12:31.830Z,24
2022-07-29T05:13:46.932Z,25
2022-07-29T05:14:48.154Z,25
2022-07-29T05:15:50.166Z,26
2022-07-29T05:16:52.490Z,26
2022-07-29T05:17:54.840Z,26
2022-07-29T05:18:56.114Z,26
2022-07-29T05:19:57.387Z,25
2022-07-29T05:20:58.960Z,24
2022-07-29T05:22:00.763Z,22
2022-07-29T05:23:02.036Z,21
2022-07-29T05:24:03.053Z,21
2022-07-29T05:25:09.398Z,23
2022-07-29T05:26:10.661Z,24
2022-07-29T05:27:12.249Z,25
2022-07-29T05:28:13.857Z,25
2022-07-29T05:29:45.875Z,23
2022-07-29T05:30:47.866Z,22
2022-07-29T05:31:50.526Z,23
2022-07-29T05:32:55.964Z,24
2022-07-29T05:33:57.754Z,24
2022-07-29T05:34:59.824Z,25
2022-07-29T05:36:01.369Z,24
2022-07-29T05:37:02.624Z,22
2022-07-29T05:38:04.125Z,22
2022-07-29T05:39:08.057Z,21
2022-07-29T05:40:09.601Z,21
2022-07-29T05:41:14.383Z,21
2022-07-29T05:42:16.282Z,21
2022-07-29T05:43:18.280Z,21
2022-07-29T05:44:19.804Z,21
2022-07-29T05:45:27.183Z,22
2022-07-29T05:46:28.753Z,22
2022-07-29T05:47:32.090Z,22
2022-07-29T05:48:33.115Z,21
2022-07-29T05:49:35.051Z,21
2022-07-29T05:50:44.475Z,21
2022-07-29T05:51:46.025Z,20
2022-07-29T05:52:50.268Z,21
2022-07-29T05:53:51.265Z,21
2022-07-29T05:54:52.829Z,20
2022-07-29T05:55:54.089Z,20
2022-07-29T05:56:55.316Z,20
2022-07-29T05:57:56.347Z,19
2022-07-29T05:58:57.347Z,19
2022-07-29T05:59:58.874Z,19
2022-07-29T06:01:00.697Z,18
2022-07-29T06:02:02.685Z,17
2022-07-29T06:03:03.668Z,16
2022-07-29T06:04:05.522Z,15
2022-07-29T06:05:16.325Z,15
2022-07-29T06:06:19.383Z,15
2022-07-29T06:07:20.982Z,14
2022-07-29T06:08:22.487Z,15
2022-07-29T06:09:24.859Z,16
2022-07-29T06:10:27.241Z,16
2022-07-29T06:11:28.797Z,17
2022-07-29T06:12:29.788Z,18
2022-07-29T06:13:31.285Z,17
2022-07-29T06:14:32.864Z,17
2022-07-29T06:15:34.357Z,16
2022-07-29T06:16:36.477Z,14
2022-07-29T06:18:01.465Z,15
2022-07-29T06:19:04.827Z,16
2022-07-29T06:20:08.038Z,17
2022-07-29T06:21:13.337Z,18
2022-07-29T06:22:14.885Z,17
2022-07-29T06:23:17.217Z,15
2022-07-29T06:24:19.254Z,14
2022-07-29T06:25:22.174Z,15
2022-07-29T06:26:33.348Z,14
2022-07-29T06:27:40.798Z,15
2022-07-29T06:28:42.096Z,15
2022-07-29T06:29:43.365Z,14
2022-07-29T06:30:45.050Z,14
2022-07-29T06:31:46.505Z,13
2022-07-29T06:32:48.117Z,13
2022-07-29T06:33:49.387Z,13
2022-07-29T06:34:51.810Z,12
2022-07-29T06:36:25.570Z,12
2022-07-29T06:37:32.521Z,13
2022-07-29T06:38:50.559Z,14
2022-07-29T06:39:59.797Z,15
2022-07-29T06:41:00.812Z,15
2022-07-29T06:42:02.406Z,15
2022-07-29T06:43:07.681Z,15
2022-07-29T06:44:09.017Z,15
2022-07-29T06:45:10.054Z,17
2022-07-29T06:46:11.955Z,18
2022-07-29T06:47:14.315Z,18
2022-07-29T06:48:15.588Z,17
2022-07-29T06:49:25.514Z,15
2022-07-29T06:50:33.267Z,14
2022-07-29T06:51:38.622Z,14
2022-07-29T06:52:47.259Z,14
2022-07-29T06:55:25.712Z,16
2022-07-29T06:56:30.794Z,17
2022-07-29T06:57:42.924Z,19
2022-07-29T06:59:56.761Z,21
2022-07-29T07:03:47.990Z,20
2022-07-29T07:04:52.570Z,21
2022-07-29T07:05:56.154Z,19
2022-07-29T07:07:04.143Z,20
2022-07-29T07:08:13.335Z,21
2022-07-29T07:09:16.762Z,20
2022-07-29T07:10:43.418Z,22
2022-07-29T07:11:50.239Z,24
2022-07-29T07:12:57.595Z,27
2022-07-29T07:14:10.408Z,29
2022-07-29T07:15:38.883Z,29
2022-07-29T07:16:44.986Z,28
2022-07-29T07:17:56.804Z,27
2022-07-29T07:18:58.873Z,27
2022-07-29T07:20:00.727Z,29
2022-07-29T07:21:31.142Z,28
2022-07-29T07:22:41.859Z,27
2022-07-29T07:24:14.548Z,27
2022-07-29T07:26:11.338Z,28
2022-07-29T07:27:20.477Z,29
2022-07-29T07:28:29.170Z,29
2022-07-29T07:29:36.617Z,30
2022-07-29T07:30:48.052Z,29
2022-07-29T07:31:50.202Z,28
2022-07-29T07:32:52.256Z,29
2022-07-29T07:33:54.793Z,31
2022-07-29T07:34:56.612Z,29
2022-07-29T07:35:59.942Z,27
2022-07-29T07:37:01.315Z,24
2022-07-29T07:38:03.083Z,19
2022-07-29T07:39:04.716Z,18
2022-07-29T07:40:06.087Z,19
2022-07-29T07:41:07.920Z,19
2022-07-29T07:42:10.307Z,19
2022-07-29T07:43:13.088Z,19
2022-07-29T07:44:17.016Z,18
2022-07-29T07:45:23.632Z,18
2022-07-29T07:46:38.574Z,17
2022-07-29T07:47:57.421Z,17
2022-07-29T07:49:03.246Z,18
2022-07-29T07:50:05.425Z,18
2022-07-29T07:51:07.779Z,19
2022-07-29T07:52:09.876Z,18
2022-07-29T07:53:11.674Z,16
2022-07-29T07:54:14.337Z,15
2022-07-29T07:55:17.945Z,15
2022-07-29T07:56:24.329Z,15
2022-07-29T07:57:35.357Z,15
2022-07-29T07:58:36.344Z,15
2022-07-29T07:59:38.404Z,15
2022-07-29T08:00:39.948Z,15
2022-07-29T08:01:56.604Z,16
2022-07-29T08:02:59.963Z,16
2022-07-29T08:04:01.799Z,16
2022-07-29T08:05:03.673Z,17
2022-07-29T08:06:12.722Z,18
2022-07-29T08:07:14.513Z,17
2022-07-29T08:08:16.147Z,17
2022-07-29T08:09:30.243Z,16
2022-07-29T08:10:33.214Z,15
2022-07-29T08:11:38.129Z,17
2022-07-29T08:12:53.607Z,17
2022-07-29T08:13:55.666Z,19
2022-07-29T08:14:57.245Z,19
2022-07-29T08:15:59.525Z,18
2022-07-29T08:17:02.495Z,18
2022-07-29T08:18:09.115Z,17
2022-07-29T08:19:14.242Z,16
2022-07-29T08:20:16.587Z,15
2022-07-29T08:21:18.451Z,15
2022-07-29T08:22:19.829Z,15
2022-07-29T08:23:22.859Z,16
2022-07-29T08:24:27.143Z,17
2022-07-29T08:25:33.189Z,17
2022-07-29T08:26:42.347Z,17
2022-07-29T08:27:45.191Z,14
2022-07-29T08:28:47.351Z,13
2022-07-29T08:29:48.841Z,13
2022-07-29T08:30:51.566Z,13
2022-07-29T08:31:54.074Z,13
2022-07-29T08:32:58.240Z,13
2022-07-29T08:34:00.972Z,13
2022-07-29T08:35:04.277Z,13
2022-07-29T08:36:05.547Z,13
2022-07-29T08:37:06.558Z,14
2022-07-29T08:38:08.417Z,15
2022-07-29T08:39:11.299Z,16
2022-07-29T08:40:13.445Z,16
2022-07-29T08:41:15.099Z,15
2022-07-29T08:42:16.120Z,15
2022-07-29T08:43:17.713Z,15
2022-07-29T08:44:31.337Z,16
2022-07-29T08:45:32.458Z,16
2022-07-29T08:46:33.661Z,15
2022-07-29T08:47:34.687Z,15
2022-07-29T08:48:35.820Z,15
2022-07-29T08:49:38.307Z,16
2022-07-29T08:50:40.115Z,16
2022-07-29T08:51:53.805Z,15
2022-07-29T08:53:00.448Z,15
2022-07-29T08:54:01.985Z,15
2022-07-29T08:55:03.309Z,16
2022-07-29T08:56:04.295Z,16
2022-07-29T08:57:05.872Z,16
2022-07-29T08:58:08.091Z,14
2022-07-29T08:59:16.366Z,14
2022-07-29T09:00:23.082Z,14
2022-07-29T09:01:42.637Z,15
2022-07-29T09:02:48.693Z,16
2022-07-29T09:03:50.413Z,17
2022-07-29T09:04:51.818Z,18
2022-07-29T09:05:54.162Z,18
2022-07-29T09:06:56.517Z,17
2022-07-29T09:07:58.650Z,16
2022-07-29T09:09:00.818Z,15
2022-07-29T09:10:03.421Z,16
2022-07-29T09:11:05.853Z,16
2022-07-29T09:12:06.837Z,16
2022-07-29T09:13:08.239Z,17
2022-07-29T09:14:09.273Z,16
2022-07-29T09:15:11.061Z,15
2022-07-29T09:16:12.961Z,15
2022-07-29T09:17:54.923Z,16
2022-07-29T09:18:55.926Z,16
2022-07-29T09:19:57.887Z,17
2022-07-29T09:20:59.390Z,17
2022-07-29T09:22:04.117Z,17
2022-07-29T09:23:06.816Z,17
2022-07-29T09:24:08.878Z,16
2022-07-29T09:25:09.911Z,16
2022-07-29T09:26:10.920Z,15
2022-07-29T09:27:12.452Z,15
2022-07-29T09:28:14.255Z,15
2022-07-29T09:29:16.321Z,15
2022-07-29T09:30:31.988Z,15
2022-07-29T09:31:34.000Z,15
2022-07-29T09:32:36.613Z,15
2022-07-29T09:33:44.671Z,15
2022-07-29T09:34:47.020Z,15
2022-07-29T09:35:57.261Z,15
2022-07-29T09:37:04.346Z,15
2022-07-29T09:38:05.890Z,15
2022-07-29T09:39:07.668Z,15
2022-07-29T09:40:12.327Z,16
2022-07-29T09:41:14.402Z,16
2022-07-29T09:42:17.079Z,18
2022-07-29T09:43:20.698Z,18
2022-07-29T09:44:23.330Z,19
2022-07-29T09:45:25.138Z,18
2022-07-29T09:46:28.053Z,18
2022-07-29T09:47:29.618Z,19
2022-07-29T09:48:31.162Z,18
2022-07-29T09:49:32.720Z,17
2022-07-29T09:50:35.092Z,18
2022-07-29T09:51:39.000Z,16
2022-07-29T09:52:41.090Z,16
2022-07-29T09:53:42.638Z,17
2022-07-29T09:54:43.636Z,16
2022-07-29T09:55:46.817Z,16
2022-07-29T09:56:48.930Z,16
2022-07-29T09:57:50.708Z,15
2022-07-29T09:58:59.215Z,15
2022-07-29T10:00:00.275Z,15
2022-07-29T10:01:02.997Z,15
2022-07-29T10:02:05.677Z,16
2022-07-29T10:03:09.334Z,15
2022-07-29T10:04:15.351Z,16
2022-07-29T10:05:21.076Z,16
2022-07-29T10:06:22.629Z,16
2022-07-29T10:07:24.187Z,17
2022-07-29T10:08:25.728Z,16
2022-07-29T10:09:26.982Z,16
2022-07-29T10:10:28.351Z,17
2022-07-29T10:11:49.963Z,17
2022-07-29T10:12:51.254Z,18
2022-07-29T10:13:52.800Z,17
2022-07-29T10:14:53.784Z,16
2022-07-29T10:15:54.906Z,16
2022-07-29T10:16:56.158Z,16
2022-07-29T10:17:57.410Z,17
2022-07-29T10:18:59.486Z,17
2022-07-29T10:20:01.295Z,16
2022-07-29T10:21:03.743Z,15
2022-07-29T10:22:06.333Z,15
2022-07-29T10:23:07.833Z,15
2022-07-29T10:24:15.278Z,17
2022-07-29T10:25:16.570Z,17
2022-07-29T10:26:19.052Z,17
2022-07-29T10:27:22.045Z,17
2022-07-29T10:28:24.118Z,16
2022-07-29T10:29:26.748Z,16
2022-07-29T10:30:30.501Z,16
2022-07-29T10:31:32.079Z,17
2022-07-29T10:32:33.404Z,18
2022-07-29T10:33:35.459Z,18
2022-07-29T10:34:36.738Z,18
2022-07-29T10:35:38.646Z,17
2022-07-29T10:36:43.674Z,17
2022-07-29T10:37:48.431Z,16
2022-07-29T10:38:49.531Z,17
2022-07-29T10:39:51.891Z,17
2022-07-29T10:40:57.467Z,18
2022-07-29T10:42:03.802Z,19
2022-07-29T10:43:13.972Z,19
2022-07-29T10:44:24.083Z,19
2022-07-29T10:45:28.227Z,19
2022-07-29T10:46:33.622Z,19
2022-07-29T10:47:36.324Z,19
2022-07-29T10:48:39.513Z,19
2022-07-29T10:49:45.529Z,20
2022-07-29T10:50:49.592Z,19
2022-07-29T10:51:52.320Z,19
2022-07-29T10:52:54.562Z,19
2022-07-29T10:53:58.053Z,18
2022-07-29T10:54:59.834Z,17
2022-07-29T10:56:06.644Z,17
2022-07-29T10:57:20.066Z,17
2022-07-29T10:58:55.410Z,17
2022-07-29T11:00:00.025Z,18
2022-07-29T11:01:07.482Z,19
2022-07-29T12:08:14.564Z,21
2022-07-29T12:09:17.317Z,22
2022-07-29T12:10:31.128Z,22
2022-07-29T12:11:40.286Z,23
2022-07-29T12:12:46.367Z,22
2022-07-29T12:13:50.006Z,22
2022-07-29T12:14:57.378Z,26
2022-07-29T12:16:03.686Z,30
2022-07-29T12:17:16.125Z,30
2022-07-29T12:18:18.636Z,30
2022-07-29T12:19:28.291Z,26
2022-07-29T12:20:34.423Z,23
2022-07-29T12:21:39.129Z,23
2022-07-29T12:23:04.080Z,49
2022-07-29T12:24:09.745Z,77
2022-07-29T12:25:33.866Z,88
2022-07-29T12:26:40.456Z,90
2022-07-29T12:27:46.375Z,64
2022-07-29T12:28:49.102Z,37
2022-07-29T12:29:50.282Z,27
2022-07-29T12:30:52.910Z,27
2022-07-29T12:31:58.623Z,28
2022-07-29T12:33:20.438Z,64
2022-07-29T12:34:22.557Z,65
2022-07-29T12:35:24.632Z,64
2022-07-29T12:36:25.721Z,63
2022-07-29T12:37:42.578Z,26
2022-07-29T12:38:44.204Z,33
2022-07-29T12:39:50.065Z,40
2022-07-29T12:40:51.383Z,48
2022-07-29T12:42:05.226Z,64
2022-07-29T12:43:15.630Z,58
2022-07-29T12:44:16.667Z,58
2022-07-29T12:45:19.281Z,60
2022-07-29T12:46:21.045Z,56
2022-07-29T12:47:22.374Z,64
2022-07-29T12:48:24.178Z,62
2022-07-29T12:49:25.410Z,54
2022-07-29T12:50:27.991Z,43
2022-07-29T12:51:29.594Z,30
2022-07-29T12:52:31.776Z,27
2022-07-29T12:53:33.070Z,26
2022-07-29T12:54:40.675Z,26
2022-07-29T12:55:47.823Z,27
2022-07-29T12:56:53.203Z,24
2022-07-29T12:57:54.588Z,22
2022-07-29T12:58:56.874Z,23
2022-07-29T12:59:58.505Z,23
2022-07-29T13:00:59.947Z,24
2022-07-29T13:02:01.914Z,23
2022-07-29T13:03:08.057Z,21
2022-07-29T13:04:12.653Z,20
2022-07-29T13:05:14.624Z,19
2022-07-29T13:06:17.681Z,19
2022-07-29T13:07:57.470Z,20
2022-07-29T13:09:01.153Z,19
2022-07-29T13:10:02.875Z,19
2022-07-29T13:11:05.218Z,19
2022-07-29T13:12:08.163Z,19
2022-07-29T13:13:09.671Z,19
2022-07-29T13:14:13.950Z,19
2022-07-29T13:15:16.173Z,20
2022-07-29T13:16:18.341Z,21
2022-07-29T13:17:20.897Z,24
2022-07-29T13:18:24.525Z,26
2022-07-29T13:19:25.584Z,25
2022-07-29T13:20:27.209Z,24
2022-07-29T13:21:28.227Z,22
2022-07-29T13:22:30.015Z,20
2022-07-29T13:23:38.561Z,20
2022-07-29T13:24:43.024Z,19
2022-07-29T13:26:07.495Z,19
2022-07-29T13:27:09.647Z,20
2022-07-29T13:28:11.582Z,21
2022-07-29T13:29:24.523Z,22
2022-07-29T13:30:33.118Z,21
2022-07-29T13:31:35.149Z,22
2022-07-29T13:32:37.671Z,21
2022-07-29T13:33:39.077Z,21
2022-07-29T13:34:42.631Z,23
2022-07-29T13:35:44.410Z,22
2022-07-29T13:36:45.956Z,23
2022-07-29T13:37:47.513Z,23
2022-07-29T13:38:52.914Z,21
2022-07-29T13:39:55.467Z,22
2022-07-29T13:40:57.847Z,21
2022-07-29T13:42:01.969Z,21
2022-07-29T13:43:07.090Z,21
2022-07-29T13:44:08.383Z,19
2022-07-29T13:45:10.242Z,21
2022-07-29T13:46:11.609Z,21
2022-07-29T13:47:14.356Z,21
2022-07-29T13:48:15.949Z,22
2022-07-29T13:49:17.916Z,22
2022-07-29T13:50:19.994Z,22
2022-07-29T13:51:22.050Z,22
2022-07-29T13:52:24.435Z,21
2022-07-29T13:53:27.429Z,20
2022-07-29T13:54:28.957Z,21
2022-07-29T13:55:30.511Z,22
2022-07-29T13:56:31.847Z,23
2022-07-29T13:57:32.831Z,24
2022-07-29T13:58:34.457Z,24
2022-07-29T13:59:35.754Z,22
2022-07-29T14:00:36.779Z,21
2022-07-29T14:01:38.765Z,21
2022-07-29T14:02:40.579Z,22
2022-07-29T14:03:45.982Z,22
2022-07-29T14:04:48.283Z,23
2022-07-29T14:05:50.489Z,23
2022-07-29T14:06:52.022Z,21
2022-07-29T14:07:53.715Z,22
2022-07-29T14:08:55.399Z,22
2022-07-29T14:09:57.888Z,23
2022-07-29T14:10:59.139Z,23
2022-07-29T14:12:03.151Z,23
2022-07-29T14:13:27.923Z,24
2022-07-29T14:14:33.005Z,23
2022-07-29T14:16:20.655Z,23
2022-07-29T14:17:22.733Z,23
2022-07-29T14:18:24.208Z,24
2022-07-29T14:19:25.272Z,25
2022-07-29T14:20:26.737Z,25
2022-07-29T14:21:28.809Z,26
2022-07-29T14:22:42.537Z,26
2022-07-29T14:23:47.700Z,27
2022-07-29T14:24:52.584Z,27
2022-07-29T14:25:54.190Z,27
2022-07-29T14:26:56.727Z,28
2022-07-29T14:27:58.781Z,28
2022-07-29T14:29:00.109Z,27
2022-07-29T14:30:01.709Z,28
2022-07-29T14:31:03.296Z,28
2022-07-29T14:33:21.280Z,28
2022-07-29T14:34:22.283Z,27
2022-07-29T14:35:23.841Z,26
2022-07-29T14:36:25.406Z,26
2022-07-29T14:37:40.466Z,26
2022-07-29T14:38:42.522Z,28
2022-07-29T14:39:43.821Z,27
2022-07-29T14:40:51.075Z,27
2022-07-29T14:41:52.459Z,28
2022-07-29T14:42:54.310Z,26
2022-07-29T14:43:56.368Z,27
2022-07-29T14:44:57.995Z,28
2022-07-29T14:46:08.422Z,27
2022-07-29T14:47:11.163Z,29
2022-07-29T14:48:12.163Z,29
2022-07-29T14:49:13.690Z,28
2022-07-29T14:50:15.196Z,28
2022-07-29T14:51:32.842Z,27
2022-07-29T14:52:34.103Z,27
2022-07-29T14:53:35.431Z,27
2022-07-29T14:54:36.732Z,26
2022-07-29T14:55:37.723Z,25
2022-07-29T14:56:47.152Z,26
2022-07-29T14:57:49.550Z,26
2022-07-29T14:58:52.450Z,27
2022-07-29T14:59:56.605Z,27
2022-07-29T15:00:57.767Z,27
2022-07-29T15:01:59.890Z,26
2022-07-29T15:03:04.619Z,26
2022-07-29T15:04:12.027Z,26
2022-07-29T15:05:13.341Z,25
2022-07-29T15:06:15.121Z,27
2022-07-29T15:07:16.399Z,27
2022-07-29T15:08:19.000Z,27
2022-07-29T15:09:21.124Z,27
2022-07-29T15:10:25.181Z,26
2022-07-29T15:11:28.346Z,24
2022-07-29T15:12:30.196Z,24
2022-07-29T15:13:31.498Z,25
2022-07-29T15:14:32.765Z,25
2022-07-29T15:15:34.815Z,26
2022-07-29T15:16:37.384Z,25
2022-07-29T15:17:44.442Z,25
2022-07-29T15:18:46.525Z,26
2022-07-29T15:19:49.587Z,25
2022-07-29T15:20:50.601Z,25
2022-07-29T15:22:00.038Z,24
2022-07-29T15:23:04.019Z,24
2022-07-29T15:24:05.308Z,25
2022-07-29T15:25:06.606Z,26
2022-07-29T15:26:07.590Z,27
2022-07-29T15:27:08.854Z,27
2022-07-29T15:28:10.402Z,28
2022-07-29T15:29:14.035Z,28
2022-07-29T15:30:34.607Z,28
2022-07-29T15:31:36.725Z,28
2022-07-29T15:32:39.100Z,28
2022-07-29T15:33:40.120Z,28
2022-07-29T15:34:41.404Z,27
2022-07-29T15:35:42.706Z,27
2022-07-29T15:36:54.165Z,26
2022-07-29T15:37:55.659Z,25
2022-07-29T15:38:56.648Z,25
2022-07-29T15:40:00.449Z,25
2022-07-29T15:41:01.800Z,24
2022-07-29T15:42:03.071Z,26
2022-07-29T15:43:04.360Z,26
2022-07-29T15:44:05.666Z,27
2022-07-29T15:45:06.660Z,28
2022-07-29T15:46:07.819Z,28
2022-07-29T15:47:09.766Z,28
2022-07-29T15:48:15.069Z,28
2022-07-29T15:49:23.033Z,27
2022-07-29T15:50:27.966Z,26
2022-07-29T15:51:30.589Z,26
2022-07-29T15:52:33.197Z,26
2022-07-29T15:53:35.559Z,27
2022-07-29T15:54:37.098Z,27
2022-07-29T15:55:38.110Z,27
2022-07-29T15:56:40.531Z,28
2022-07-29T15:57:49.330Z,28
2022-07-29T15:58:52.198Z,28
2022-07-29T15:59:54.569Z,29
2022-07-29T16:00:57.402Z,27
2022-07-29T16:02:04.758Z,27
2022-07-29T16:03:06.116Z,25
2022-07-29T16:04:09.184Z,24
2022-07-29T16:05:15.476Z,24
2022-07-29T16:06:17.634Z,25
2022-07-29T16:07:18.892Z,24
2022-07-29T16:08:20.986Z,25
2022-07-29T16:09:23.664Z,25
2022-07-29T16:10:30.090Z,25
2022-07-29T16:11:33.908Z,25
2022-07-29T16:12:46.564Z,25
2022-07-29T16:13:55.801Z,24
2022-07-29T16:15:10.547Z,23
2022-07-29T16:16:16.184Z,24
2022-07-29T16:17:21.485Z,24
2022-07-29T16:18:33.752Z,25
2022-07-29T16:19:53.954Z,25
2022-07-29T16:20:56.125Z,24
2022-07-29T16:22:15.673Z,23
2022-07-29T16:23:28.681Z,23
2022-07-29T16:24:31.159Z,23
2022-07-29T16:26:00.988Z,24
2022-07-29T16:27:03.730Z,23
2022-07-29T16:28:05.898Z,24
2022-07-29T16:29:10.953Z,25
2022-07-29T16:30:13.591Z,25
2022-07-29T16:31:15.737Z,26
2022-07-29T16:32:22.732Z,26
2022-07-29T16:33:23.772Z,26
2022-07-29T16:34:25.361Z,26
2022-07-29T16:35:40.224Z,26
2022-07-29T16:36:48.121Z,27
2022-07-29T16:37:49.659Z,26
2022-07-29T16:38:51.226Z,27
2022-07-29T16:39:53.890Z,28
2022-07-29T16:40:55.952Z,28
2022-07-29T16:42:05.142Z,28
2022-07-29T16:43:49.291Z,28
2022-07-29T16:44:51.178Z,27
2022-07-29T16:45:53.259Z,27
2022-07-29T16:47:03.274Z,27
2022-07-29T16:48:14.654Z,26
2022-07-29T16:49:39.233Z,26
2022-07-29T16:50:40.501Z,26
2022-07-29T16:51:45.460Z,26
2022-07-29T16:52:47.819Z,27
2022-07-29T16:53:50.681Z,27
2022-07-29T16:54:51.970Z,28
2022-07-29T16:55:54.487Z,28
2022-07-29T16:56:57.653Z,28
2022-07-29T16:58:01.871Z,28
2022-07-29T16:59:03.315Z,28
2022-07-29T17:00:05.504Z,28
2022-07-29T17:01:07.470Z,28
2022-07-29T17:02:09.741Z,28
2022-07-29T17:03:13.865Z,28
2022-07-29T17:04:15.593Z,28
2022-07-29T17:05:17.167Z,28
2022-07-29T17:06:19.782Z,28
2022-07-29T17:07:21.846Z,28
2022-07-29T17:08:23.546Z,28
2022-07-29T17:09:25.798Z,29
2022-07-29T17:10:27.988Z,30
2022-07-29T17:11:55.203Z,31
2022-07-29T17:12:56.430Z,31
2022-07-29T17:14:02.029Z,32
2022-07-29T17:15:09.289Z,31
2022-07-29T17:16:11.805Z,30
2022-07-29T17:17:54.984Z,30
2022-07-29T17:18:58.615Z,29
2022-07-29T17:19:59.904Z,29